sensor_id;sensor_type;location;lat;lon;timestamp;pressure;altitude;pressure_sealevel;temperature;humidity
77574;BME280;66710;48.868;9.080;2023-04-25T00:00:25;97405.25;;;6.80;82.34
77574;BME280;66710;48.868;9.080;2023-04-25T00:02:51;97407.66;;;6.76;82.76
77574;BME280;66710;48.868;9.080;2023-04-25T00:05:17;97407.13;;;6.74;83.10
77574;BME280;66710;48.868;9.080;2023-04-25T00:07:42;97403.53;;;6.69;84.51
77574;BME280;66710;48.868;9.080;2023-04-25T00:10:08;97403.81;;;6.67;83.68
77574;BME280;66710;48.868;9.080;2023-04-25T00:12:34;97407.91;;;6.75;82.53
77574;BME280;66710;48.868;9.080;2023-04-25T00:15:01;97399.00;;;6.74;82.55
77574;BME280;66710;48.868;9.080;2023-04-25T00:17:26;97404.34;;;6.64;82.98
77574;BME280;66710;48.868;9.080;2023-04-25T00:19:52;97390.81;;;6.64;83.44
77574;BME280;66710;48.868;9.080;2023-04-25T00:22:17;97401.41;;;6.71;81.78
77574;BME280;66710;48.868;9.080;2023-04-25T00:24:43;97399.53;;;6.76;81.64
77574;BME280;66710;48.868;9.080;2023-04-25T00:27:08;97410.34;;;6.71;81.14
77574;BME280;66710;48.868;9.080;2023-04-25T00:29:34;97411.66;;;6.69;81.96
77574;BME280;66710;48.868;9.080;2023-04-25T00:31:59;97416.00;;;6.70;82.90
77574;BME280;66710;48.868;9.080;2023-04-25T00:34:25;97412.78;;;6.73;81.92
77574;BME280;66710;48.868;9.080;2023-04-25T00:36:50;97418.72;;;6.70;82.77
77574;BME280;66710;48.868;9.080;2023-04-25T00:39:16;97401.97;;;6.73;81.48
77574;BME280;66710;48.868;9.080;2023-04-25T00:41:41;97400.84;;;6.69;81.93
77574;BME280;66710;48.868;9.080;2023-04-25T00:44:08;97402.22;;;6.71;81.92
77574;BME280;66710;48.868;9.080;2023-04-25T00:46:36;97388.16;;;6.74;81.09
77574;BME280;66710;48.868;9.080;2023-04-25T00:49:01;97384.06;;;6.72;82.34
77574;BME280;66710;48.868;9.080;2023-04-25T00:51:27;97386.28;;;6.75;82.75
77574;BME280;66710;48.868;9.080;2023-04-25T00:53:53;97385.16;;;6.66;83.12
77574;BME280;66710;48.868;9.080;2023-04-25T00:56:19;97380.53;;;6.66;82.84
77574;BME280;66710;48.868;9.080;2023-04-25T00:58:45;97385.66;;;6.62;82.67
77574;BME280;66710;48.868;9.080;2023-04-25T01:01:11;97374.50;;;6.54;83.74
77574;BME280;66710;48.868;9.080;2023-04-25T01:03:38;97372.88;;;6.53;83.20
77574;BME280;66710;48.868;9.080;2023-04-25T01:06:08;97371.28;;;6.57;82.64
77574;BME280;66710;48.868;9.080;2023-04-25T01:08:34;97369.72;;;6.66;81.91
77574;BME280;66710;48.868;9.080;2023-04-25T01:11:00;97373.16;;;6.56;82.57
77574;BME280;66710;48.868;9.080;2023-04-25T01:13:25;97371.81;;;6.54;82.17
77574;BME280;66710;48.868;9.080;2023-04-25T01:15:51;97375.03;;;6.51;82.33
77574;BME280;66710;48.868;9.080;2023-04-25T01:18:18;97382.63;;;6.54;82.15
77574;BME280;66710;48.868;9.080;2023-04-25T01:20:43;97376.13;;;6.50;82.51
77574;BME280;66710;48.868;9.080;2023-04-25T01:23:09;97373.72;;;6.53;82.45
77574;BME280;66710;48.868;9.080;2023-04-25T01:25:35;97378.56;;;6.51;82.97
77574;BME280;66710;48.868;9.080;2023-04-25T01:28:01;97371.00;;;6.53;82.29
77574;BME280;66710;48.868;9.080;2023-04-25T01:30:26;97366.69;;;6.57;82.59
77574;BME280;66710;48.868;9.080;2023-04-25T01:32:54;97364.81;;;6.63;81.41
77574;BME280;66710;48.868;9.080;2023-04-25T01:35:20;97352.34;;;6.57;81.61
77574;BME280;66710;48.868;9.080;2023-04-25T01:37:45;97356.63;;;6.53;82.27
77574;BME280;66710;48.868;9.080;2023-04-25T01:40:11;97359.34;;;6.53;82.80
77574;BME280;66710;48.868;9.080;2023-04-25T01:42:41;97363.16;;;6.52;82.46
77574;BME280;66710;48.868;9.080;2023-04-25T01:45:08;97372.88;;;6.53;82.59
77574;BME280;66710;48.868;9.080;2023-04-25T01:47:33;97370.13;;;6.48;82.96
77574;BME280;66710;48.868;9.080;2023-04-25T01:50:01;97375.00;;;6.45;82.52
77574;BME280;66710;48.868;9.080;2023-04-25T01:52:26;97367.72;;;6.46;82.45
77574;BME280;66710;48.868;9.080;2023-04-25T01:54:52;97372.28;;;6.45;82.66
77574;BME280;66710;48.868;9.080;2023-04-25T01:57:19;97374.75;;;6.47;81.71
77574;BME280;66710;48.868;9.080;2023-04-25T01:59:45;97369.91;;;6.54;80.90
77574;BME280;66710;48.868;9.080;2023-04-25T02:02:10;97372.38;;;6.61;80.26
77574;BME280;66710;48.868;9.080;2023-04-25T02:04:36;97371.06;;;6.69;79.43
77574;BME280;66710;48.868;9.080;2023-04-25T02:07:01;97362.94;;;6.69;79.88
77574;BME280;66710;48.868;9.080;2023-04-25T02:09:27;97363.78;;;6.69;79.43
77574;BME280;66710;48.868;9.080;2023-04-25T02:11:52;97356.72;;;6.68;79.24
77574;BME280;66710;48.868;9.080;2023-04-25T02:14:18;97358.06;;;6.66;80.40
77574;BME280;66710;48.868;9.080;2023-04-25T02:16:43;97352.09;;;6.63;79.21
77574;BME280;66710;48.868;9.080;2023-04-25T02:19:09;97359.41;;;6.63;79.62
77574;BME280;66710;48.868;9.080;2023-04-25T02:21:35;97369.91;;;6.54;81.44
77574;BME280;66710;48.868;9.080;2023-04-25T02:24:01;97373.41;;;6.50;81.50
77574;BME280;66710;48.868;9.080;2023-04-25T02:26:27;97363.66;;;6.49;81.13
77574;BME280;66710;48.868;9.080;2023-04-25T02:28:52;97356.34;;;6.49;81.52
77574;BME280;66710;48.868;9.080;2023-04-25T02:31:17;97360.66;;;6.45;82.61
77574;BME280;66710;48.868;9.080;2023-04-25T02:33:43;97360.41;;;6.47;82.35
77574;BME280;66710;48.868;9.080;2023-04-25T02:36:09;97364.25;;;6.56;81.63
77574;BME280;66710;48.868;9.080;2023-04-25T02:38:34;97353.13;;;6.52;81.25
77574;BME280;66710;48.868;9.080;2023-04-25T02:41:00;97340.09;;;6.44;82.04
77574;BME280;66710;48.868;9.080;2023-04-25T02:43:25;97351.44;;;6.41;82.19
77574;BME280;66710;48.868;9.080;2023-04-25T02:45:51;97353.28;;;6.35;83.28
77574;BME280;66710;48.868;9.080;2023-04-25T02:48:16;97353.63;;;6.39;82.34
77574;BME280;66710;48.868;9.080;2023-04-25T02:50:41;97352.50;;;6.40;82.36
77574;BME280;66710;48.868;9.080;2023-04-25T02:53:07;97353.09;;;6.47;82.24
77574;BME280;66710;48.868;9.080;2023-04-25T02:55:32;97351.19;;;6.48;81.42
77574;BME280;66710;48.868;9.080;2023-04-25T02:57:58;97343.09;;;6.53;81.71
77574;BME280;66710;48.868;9.080;2023-04-25T03:00:23;97344.66;;;6.38;82.70
77574;BME280;66710;48.868;9.080;2023-04-25T03:02:49;97339.75;;;6.35;83.06
77574;BME280;66710;48.868;9.080;2023-04-25T03:05:14;97340.84;;;6.34;82.77
77574;BME280;66710;48.868;9.080;2023-04-25T03:07:39;97336.53;;;6.38;82.66
77574;BME280;66710;48.868;9.080;2023-04-25T03:10:08;97322.81;;;6.50;80.76
77574;BME280;66710;48.868;9.080;2023-04-25T03:12:33;97332.03;;;6.54;81.00
77574;BME280;66710;48.868;9.080;2023-04-25T03:14:59;97333.34;;;6.47;80.84
77574;BME280;66710;48.868;9.080;2023-04-25T03:17:24;97329.28;;;6.49;80.82
77574;BME280;66710;48.868;9.080;2023-04-25T03:19:49;97333.94;;;6.54;80.56
77574;BME280;66710;48.868;9.080;2023-04-25T03:22:15;97324.16;;;6.53;80.84
77574;BME280;66710;48.868;9.080;2023-04-25T03:24:40;97329.03;;;6.51;80.77
77574;BME280;66710;48.868;9.080;2023-04-25T03:27:05;97330.16;;;6.55;80.77
77574;BME280;66710;48.868;9.080;2023-04-25T03:29:31;97331.75;;;6.51;80.82
77574;BME280;66710;48.868;9.080;2023-04-25T03:31:56;97330.94;;;6.50;80.99
77574;BME280;66710;48.868;9.080;2023-04-25T03:34:22;97338.25;;;6.50;81.59
77574;BME280;66710;48.868;9.080;2023-04-25T03:36:47;97333.94;;;6.54;81.28
77574;BME280;66710;48.868;9.080;2023-04-25T03:39:13;97333.66;;;6.55;81.41
77574;BME280;66710;48.868;9.080;2023-04-25T03:41:38;97331.78;;;6.56;81.03
77574;BME280;66710;48.868;9.080;2023-04-25T03:44:03;97323.66;;;6.56;80.57
77574;BME280;66710;48.868;9.080;2023-04-25T03:46:29;97323.38;;;6.52;80.90
77574;BME280;66710;48.868;9.080;2023-04-25T03:48:55;97327.72;;;6.53;81.39
77574;BME280;66710;48.868;9.080;2023-04-25T03:51:20;97325.78;;;6.49;80.95
77574;BME280;66710;48.868;9.080;2023-04-25T03:53:45;97329.28;;;6.49;81.05
77574;BME280;66710;48.868;9.080;2023-04-25T03:56:11;97320.34;;;6.43;81.19
77574;BME280;66710;48.868;9.080;2023-04-25T03:58:36;97320.88;;;6.45;81.18
77574;BME280;66710;48.868;9.080;2023-04-25T04:01:01;97317.38;;;6.45;81.66
77574;BME280;66710;48.868;9.080;2023-04-25T04:03:33;97330.88;;;6.40;82.08
77574;BME280;66710;48.868;9.080;2023-04-25T04:06:00;97327.09;;;6.41;82.49
77574;BME280;66710;48.868;9.080;2023-04-25T04:08:25;97332.25;;;6.42;82.64
77574;BME280;66710;48.868;9.080;2023-04-25T04:10:51;97338.22;;;6.44;82.57
77574;BME280;66710;48.868;9.080;2023-04-25T04:13:16;97335.25;;;6.46;82.83
77574;BME280;66710;48.868;9.080;2023-04-25T04:15:41;97337.66;;;6.48;82.28
77574;BME280;66710;48.868;9.080;2023-04-25T04:18:07;97336.63;;;6.54;82.30
77574;BME280;66710;48.868;9.080;2023-04-25T04:20:32;97339.84;;;6.51;82.50
77574;BME280;66710;48.868;9.080;2023-04-25T04:22:57;97337.19;;;6.56;82.44
77574;BME280;66710;48.868;9.080;2023-04-25T04:25:23;97341.78;;;6.55;81.64
77574;BME280;66710;48.868;9.080;2023-04-25T04:27:50;97335.28;;;6.56;82.23
77574;BME280;66710;48.868;9.080;2023-04-25T04:30:21;97340.97;;;6.60;81.53
77574;BME280;66710;48.868;9.080;2023-04-25T04:32:46;97340.44;;;6.58;81.17
77574;BME280;66710;48.868;9.080;2023-04-25T04:35:13;97335.00;;;6.53;81.62
77574;BME280;66710;48.868;9.080;2023-04-25T04:37:39;97349.09;;;6.60;81.57
77574;BME280;66710;48.868;9.080;2023-04-25T04:40:05;97344.78;;;6.59;81.35
77574;BME280;66710;48.868;9.080;2023-04-25T04:42:31;97350.22;;;6.64;80.62
77574;BME280;66710;48.868;9.080;2023-04-25T04:44:57;97347.81;;;6.68;79.68
77574;BME280;66710;48.868;9.080;2023-04-25T04:47:23;97344.81;;;6.64;80.67
77574;BME280;66710;48.868;9.080;2023-04-25T04:49:49;97356.22;;;6.71;80.41
77574;BME280;66710;48.868;9.080;2023-04-25T04:52:15;97348.88;;;6.72;79.51
77574;BME280;66710;48.868;9.080;2023-04-25T04:54:40;97354.81;;;6.69;80.80
77574;BME280;66710;48.868;9.080;2023-04-25T04:57:05;97362.44;;;6.72;80.27
77574;BME280;66710;48.868;9.080;2023-04-25T04:59:31;97370.00;;;6.70;80.07
77574;BME280;66710;48.868;9.080;2023-04-25T05:01:56;97363.22;;;6.72;80.51
77574;BME280;66710;48.868;9.080;2023-04-25T05:04:21;97363.78;;;6.69;81.01
77574;BME280;66710;48.868;9.080;2023-04-25T05:06:47;97370.56;;;6.77;80.20
77574;BME280;66710;48.868;9.080;2023-04-25T05:09:12;97365.97;;;6.77;81.06
77574;BME280;66710;48.868;9.080;2023-04-25T05:11:37;97366.50;;;6.74;80.48
77574;BME280;66710;48.868;9.080;2023-04-25T05:14:03;97364.31;;;6.71;81.55
77574;BME280;66710;48.868;9.080;2023-04-25T05:16:28;97372.97;;;6.68;82.36
77574;BME280;66710;48.868;9.080;2023-04-25T05:18:53;97371.63;;;6.76;81.26
77574;BME280;66710;48.868;9.080;2023-04-25T05:21:19;97370.03;;;6.75;82.00
77574;BME280;66710;48.868;9.080;2023-04-25T05:23:44;97375.28;;;7.07;82.61
77574;BME280;66710;48.868;9.080;2023-04-25T05:26:09;97375.16;;;6.71;82.62
77574;BME280;66710;48.868;9.080;2023-04-25T05:28:41;97370.75;;;6.60;82.67
77574;BME280;66710;48.868;9.080;2023-04-25T05:31:07;97373.44;;;6.55;83.26
77574;BME280;66710;48.868;9.080;2023-04-25T05:33:34;97372.63;;;6.54;84.33
77574;BME280;66710;48.868;9.080;2023-04-25T05:36:00;97372.97;;;6.68;84.29
77574;BME280;66710;48.868;9.080;2023-04-25T05:38:25;97375.28;;;6.49;85.13
77574;BME280;66710;48.868;9.080;2023-04-25T05:40:51;97373.38;;;6.44;84.95
77574;BME280;66710;48.868;9.080;2023-04-25T05:43:16;97375.53;;;6.42;85.37
77574;BME280;66710;48.868;9.080;2023-04-25T05:45:41;97377.41;;;6.42;84.56
77574;BME280;66710;48.868;9.080;2023-04-25T05:48:07;97387.16;;;6.43;84.13
77574;BME280;66710;48.868;9.080;2023-04-25T05:50:32;97384.69;;;6.36;85.08
77574;BME280;66710;48.868;9.080;2023-04-25T05:52:57;97389.31;;;6.41;84.29
77574;BME280;66710;48.868;9.080;2023-04-25T05:55:23;97375.50;;;6.37;84.56
77574;BME280;66710;48.868;9.080;2023-04-25T05:57:48;97383.13;;;6.45;83.86
77574;BME280;66710;48.868;9.080;2023-04-25T06:00:14;97374.22;;;6.50;83.55
77574;BME280;66710;48.868;9.080;2023-04-25T06:02:42;97379.81;;;6.38;83.34
77574;BME280;66710;48.868;9.080;2023-04-25T06:05:08;97382.56;;;6.43;83.37
77574;BME280;66710;48.868;9.080;2023-04-25T06:07:33;97384.50;;;6.48;83.66
77574;BME280;66710;48.868;9.080;2023-04-25T06:09:59;97380.25;;;6.62;83.55
77574;BME280;66710;48.868;9.080;2023-04-25T06:12:26;97387.88;;;6.71;82.76
77574;BME280;66710;48.868;9.080;2023-04-25T06:14:51;97383.34;;;6.92;82.69
77574;BME280;66710;48.868;9.080;2023-04-25T06:17:16;97387.81;;;7.18;82.23
77574;BME280;66710;48.868;9.080;2023-04-25T06:19:42;97385.38;;;7.32;80.43
77574;BME280;66710;48.868;9.080;2023-04-25T06:22:07;97379.44;;;7.35;81.41
77574;BME280;66710;48.868;9.080;2023-04-25T06:24:33;97386.53;;;7.42;81.03
77574;BME280;66710;48.868;9.080;2023-04-25T06:26:58;97382.19;;;7.51;80.30
77574;BME280;66710;48.868;9.080;2023-04-25T06:29:24;97376.47;;;7.42;78.99
77574;BME280;66710;48.868;9.080;2023-04-25T06:31:49;97379.19;;;7.42;81.42
77574;BME280;66710;48.868;9.080;2023-04-25T06:34:15;97371.38;;;7.56;80.93
77574;BME280;66710;48.868;9.080;2023-04-25T06:36:40;97375.19;;;7.75;79.15
77574;BME280;66710;48.868;9.080;2023-04-25T06:39:06;97374.09;;;7.71;77.61
77574;BME280;66710;48.868;9.080;2023-04-25T06:41:32;97378.16;;;7.64;78.95
77574;BME280;66710;48.868;9.080;2023-04-25T06:43:57;97374.09;;;7.87;79.00
77574;BME280;66710;48.868;9.080;2023-04-25T06:46:22;97377.63;;;7.77;79.53
77574;BME280;66710;48.868;9.080;2023-04-25T06:48:48;97377.31;;;7.58;79.68
77574;BME280;66710;48.868;9.080;2023-04-25T06:51:13;97384.09;;;7.45;78.10
77574;BME280;66710;48.868;9.080;2023-04-25T06:53:39;97382.72;;;7.48;78.97
77574;BME280;66710;48.868;9.080;2023-04-25T06:56:05;97381.41;;;7.76;78.40
77574;BME280;66710;48.868;9.080;2023-04-25T06:58:31;97381.38;;;7.60;78.31
77574;BME280;66710;48.868;9.080;2023-04-25T07:00:56;97376.53;;;7.57;77.93
77574;BME280;66710;48.868;9.080;2023-04-25T07:03:21;97382.22;;;7.66;77.88
77574;BME280;66710;48.868;9.080;2023-04-25T07:05:47;97379.53;;;7.76;78.84
77574;BME280;66710;48.868;9.080;2023-04-25T07:08:12;97386.03;;;7.86;79.22
77574;BME280;66710;48.868;9.080;2023-04-25T07:10:37;97387.09;;;7.54;78.22
77574;BME280;66710;48.868;9.080;2023-04-25T07:13:03;97385.72;;;7.51;79.52
77574;BME280;66710;48.868;9.080;2023-04-25T07:15:28;97383.31;;;7.65;78.15
77574;BME280;66710;48.868;9.080;2023-04-25T07:17:54;97388.13;;;7.43;77.63
77574;BME280;66710;48.868;9.080;2023-04-25T07:20:19;97395.22;;;7.54;78.88
77574;BME280;66710;48.868;9.080;2023-04-25T07:22:45;97388.44;;;7.62;80.21
77574;BME280;66710;48.868;9.080;2023-04-25T07:25:10;97394.66;;;7.62;78.94
77574;BME280;66710;48.868;9.080;2023-04-25T07:27:36;97397.94;;;7.54;78.62
77574;BME280;66710;48.868;9.080;2023-04-25T07:30:01;97404.69;;;7.56;78.27
77574;BME280;66710;48.868;9.080;2023-04-25T07:32:26;97399.56;;;7.65;78.42
77574;BME280;66710;48.868;9.080;2023-04-25T07:34:52;97398.22;;;7.57;77.79
77574;BME280;66710;48.868;9.080;2023-04-25T07:37:17;97402.78;;;7.47;78.01
77574;BME280;66710;48.868;9.080;2023-04-25T07:39:44;97407.38;;;7.46;78.69
77574;BME280;66710;48.868;9.080;2023-04-25T07:42:11;97398.97;;;7.43;79.77
77574;BME280;66710;48.868;9.080;2023-04-25T07:44:37;97403.03;;;7.35;79.45
77574;BME280;66710;48.868;9.080;2023-04-25T07:47:06;97404.41;;;7.48;81.40
77574;BME280;66710;48.868;9.080;2023-04-25T07:49:35;97407.91;;;7.38;80.81
77574;BME280;66710;48.868;9.080;2023-04-25T07:52:02;97412.69;;;7.10;80.92
77574;BME280;66710;48.868;9.080;2023-04-25T07:54:27;97413.78;;;7.14;82.02
77574;BME280;66710;48.868;9.080;2023-04-25T07:56:53;97417.47;;;6.93;82.45
77574;BME280;66710;48.868;9.080;2023-04-25T07:59:18;97424.56;;;6.99;84.79
77574;BME280;66710;48.868;9.080;2023-04-25T08:01:44;97426.09;;;6.84;85.64
77574;BME280;66710;48.868;9.080;2023-04-25T08:04:09;97429.63;;;6.85;84.62
77574;BME280;66710;48.868;9.080;2023-04-25T08:06:35;97430.03;;;6.61;86.12
77574;BME280;66710;48.868;9.080;2023-04-25T08:09:01;97435.06;;;6.48;85.92
77574;BME280;66710;48.868;9.080;2023-04-25T08:11:26;97439.19;;;6.55;87.40
77574;BME280;66710;48.868;9.080;2023-04-25T08:13:51;97436.25;;;6.57;87.54
77574;BME280;66710;48.868;9.080;2023-04-25T08:16:17;97438.44;;;6.65;88.10
77574;BME280;66710;48.868;9.080;2023-04-25T08:18:42;97444.72;;;6.71;88.95
77574;BME280;66710;48.868;9.080;2023-04-25T08:21:07;97449.81;;;6.62;88.59
77574;BME280;66710;48.868;9.080;2023-04-25T08:23:34;97451.19;;;6.70;87.02
77574;BME280;66710;48.868;9.080;2023-04-25T08:25:59;97446.59;;;6.70;88.22
77574;BME280;66710;48.868;9.080;2023-04-25T08:28:24;97453.72;;;6.81;88.16
77574;BME280;66710;48.868;9.080;2023-04-25T08:30:50;97460.88;;;7.03;88.30
77574;BME280;66710;48.868;9.080;2023-04-25T08:33:15;97459.78;;;7.04;88.62
77574;BME280;66710;48.868;9.080;2023-04-25T08:35:42;97467.63;;;7.06;87.93
77574;BME280;66710;48.868;9.080;2023-04-25T08:38:07;97466.91;;;7.20;87.23
77574;BME280;66710;48.868;9.080;2023-04-25T08:40:35;97474.19;;;7.10;85.41
77574;BME280;66710;48.868;9.080;2023-04-25T08:43:02;97475.72;;;7.00;84.81
77574;BME280;66710;48.868;9.080;2023-04-25T08:45:31;97472.25;;;7.05;85.28
77574;BME280;66710;48.868;9.080;2023-04-25T08:47:57;97471.97;;;7.07;84.07
77574;BME280;66710;48.868;9.080;2023-04-25T08:50:23;97479.56;;;7.05;85.97
77574;BME280;66710;48.868;9.080;2023-04-25T08:52:49;97482.28;;;7.05;85.07
77574;BME280;66710;48.868;9.080;2023-04-25T08:55:18;97480.88;;;7.02;85.04
77574;BME280;66710;48.868;9.080;2023-04-25T08:57:44;97488.47;;;7.00;85.01
77574;BME280;66710;48.868;9.080;2023-04-25T09:00:11;97486.84;;;6.99;85.47
77574;BME280;66710;48.868;9.080;2023-04-25T09:02:39;97495.00;;;7.09;86.21
77574;BME280;66710;48.868;9.080;2023-04-25T09:05:05;97495.25;;;7.02;84.68
77574;BME280;66710;48.868;9.080;2023-04-25T09:07:31;97503.09;;;7.04;84.78
77574;BME280;66710;48.868;9.080;2023-04-25T09:09:56;97504.50;;;7.12;87.02
77574;BME280;66710;48.868;9.080;2023-04-25T09:12:24;97505.94;;;7.25;86.93
77574;BME280;66710;48.868;9.080;2023-04-25T09:15:07;97515.59;;;7.10;86.99
77574;BME280;66710;48.868;9.080;2023-04-25T09:17:33;97516.69;;;7.14;87.51
77574;BME280;66710;48.868;9.080;2023-04-25T09:20:09;97517.78;;;7.08;87.79
77574;BME280;66710;48.868;9.080;2023-04-25T09:22:35;97521.44;;;6.92;87.47
77574;BME280;66710;48.868;9.080;2023-04-25T09:25:19;97524.75;;;6.99;89.50
77574;BME280;66710;48.868;9.080;2023-04-25T09:27:52;97531.47;;;6.91;89.33
77574;BME280;66710;48.868;9.080;2023-04-25T09:30:18;97539.16;;;7.05;89.37
77574;BME280;66710;48.868;9.080;2023-04-25T09:32:44;97538.19;;;7.26;90.40
77574;BME280;66710;48.868;9.080;2023-04-25T09:35:10;97545.44;;;7.15;90.28
77574;BME280;66710;48.868;9.080;2023-04-25T09:37:36;97548.22;;;6.83;88.39
77574;BME280;66710;48.868;9.080;2023-04-25T09:40:05;97554.09;;;6.75;89.83
77574;BME280;66710;48.868;9.080;2023-04-25T09:42:31;97553.38;;;6.52;88.99
77574;BME280;66710;48.868;9.080;2023-04-25T09:44:58;97552.97;;;6.38;87.76
77574;BME280;66710;48.868;9.080;2023-04-25T09:47:24;97557.47;;;6.55;90.02
77574;BME280;66710;48.868;9.080;2023-04-25T09:49:51;97565.69;;;6.38;89.82
77574;BME280;66710;48.868;9.080;2023-04-25T09:52:21;97573.94;;;6.26;91.03
77574;BME280;66710;48.868;9.080;2023-04-25T09:54:48;97579.63;;;5.80;86.97
77574;BME280;66710;48.868;9.080;2023-04-25T09:57:22;97582.78;;;5.72;84.50
77574;BME280;66710;48.868;9.080;2023-04-25T09:59:49;97581.84;;;5.83;85.58
77574;BME280;66710;48.868;9.080;2023-04-25T10:02:17;97588.38;;;5.65;86.43
77574;BME280;66710;48.868;9.080;2023-04-25T10:04:45;97588.69;;;5.69;87.49
77574;BME280;66710;48.868;9.080;2023-04-25T10:07:13;97595.09;;;5.85;87.97
77574;BME280;66710;48.868;9.080;2023-04-25T10:09:39;97605.59;;;5.98;89.80
77574;BME280;66710;48.868;9.080;2023-04-25T10:12:05;97604.41;;;5.72;92.31
77574;BME280;66710;48.868;9.080;2023-04-25T10:14:32;97605.03;;;5.79;93.12
77574;BME280;66710;48.868;9.080;2023-04-25T10:16:58;97611.13;;;5.69;92.67
77574;BME280;66710;48.868;9.080;2023-04-25T10:19:25;97610.88;;;5.71;92.50
77574;BME280;66710;48.868;9.080;2023-04-25T10:21:56;97629.88;;;5.76;92.15
77574;BME280;66710;48.868;9.080;2023-04-25T10:24:23;97625.50;;;5.75;92.12
77574;BME280;66710;48.868;9.080;2023-04-25T10:26:50;97641.69;;;5.70;92.90
77574;BME280;66710;48.868;9.080;2023-04-25T10:29:23;97634.06;;;5.67;91.94
77574;BME280;66710;48.868;9.080;2023-04-25T10:31:49;97646.69;;;5.61;92.11
77574;BME280;66710;48.868;9.080;2023-04-25T10:34:16;97644.44;;;5.75;93.10
77574;BME280;66710;48.868;9.080;2023-04-25T10:36:41;97638.84;;;5.82;92.68
77574;BME280;66710;48.868;9.080;2023-04-25T10:39:07;97648.59;;;5.83;92.07
77574;BME280;66710;48.868;9.080;2023-04-25T10:41:52;97639.16;;;5.85;92.19
77574;BME280;66710;48.868;9.080;2023-04-25T10:44:18;97653.69;;;5.79;89.40
77574;BME280;66710;48.868;9.080;2023-04-25T10:46:44;97648.03;;;5.81;91.39
77574;BME280;66710;48.868;9.080;2023-04-25T10:49:10;97656.66;;;5.78;90.72
77574;BME280;66710;48.868;9.080;2023-04-25T10:51:36;97659.97;;;5.85;91.36
77574;BME280;66710;48.868;9.080;2023-04-25T10:54:06;97658.41;;;5.67;90.63
77574;BME280;66710;48.868;9.080;2023-04-25T10:59:14;97649.19;;;5.68;91.52
77574;BME280;66710;48.868;9.080;2023-04-25T11:01:44;97663.31;;;5.70;90.70
77574;BME280;66710;48.868;9.080;2023-04-25T11:04:22;97664.59;;;5.67;90.64
77574;BME280;66710;48.868;9.080;2023-04-25T11:07:00;97665.56;;;5.78;90.72
77574;BME280;66710;48.868;9.080;2023-04-25T11:09:27;97662.06;;;6.00;90.58
77574;BME280;66710;48.868;9.080;2023-04-25T11:11:57;97664.84;;;6.05;89.63
77574;BME280;66710;48.868;9.080;2023-04-25T11:14:23;97666.75;;;6.04;88.53
77574;BME280;66710;48.868;9.080;2023-04-25T11:16:55;97670.00;;;6.06;88.89
77574;BME280;66710;48.868;9.080;2023-04-25T11:19:21;97672.78;;;5.95;85.55
77574;BME280;66710;48.868;9.080;2023-04-25T11:21:46;97664.38;;;5.91;87.21
77574;BME280;66710;48.868;9.080;2023-04-25T11:24:12;97671.09;;;6.05;88.33
77574;BME280;66710;48.868;9.080;2023-04-25T11:26:37;97676.03;;;6.14;89.37
77574;BME280;66710;48.868;9.080;2023-04-25T11:29:02;97681.00;;;6.00;88.55
77574;BME280;66710;48.868;9.080;2023-04-25T11:31:29;97677.63;;;5.93;87.68
77574;BME280;66710;48.868;9.080;2023-04-25T11:33:56;97684.34;;;5.68;85.01
77574;BME280;66710;48.868;9.080;2023-04-25T11:36:23;97688.69;;;5.69;86.47
77574;BME280;66710;48.868;9.080;2023-04-25T11:38:50;97692.66;;;5.83;88.97
77574;BME280;66710;48.868;9.080;2023-04-25T11:41:15;97687.44;;;5.77;88.40
77574;BME280;66710;48.868;9.080;2023-04-25T11:43:42;97684.13;;;5.92;88.45
77574;BME280;66710;48.868;9.080;2023-04-25T11:46:08;97687.50;;;5.82;87.53
77574;BME280;66710;48.868;9.080;2023-04-25T11:48:38;97686.31;;;5.95;87.62
77574;BME280;66710;48.868;9.080;2023-04-25T11:51:04;97684.88;;;5.87;85.26
77574;BME280;66710;48.868;9.080;2023-04-25T11:53:29;97682.72;;;6.06;88.39
77574;BME280;66710;48.868;9.080;2023-04-25T11:55:54;97692.72;;;6.05;89.20
77574;BME280;66710;48.868;9.080;2023-04-25T11:58:21;97688.38;;;6.04;88.35
77574;BME280;66710;48.868;9.080;2023-04-25T12:00:46;97689.75;;;6.07;88.26
77574;BME280;66710;48.868;9.080;2023-04-25T12:03:11;97691.38;;;6.08;87.86
77574;BME280;66710;48.868;9.080;2023-04-25T12:05:36;97697.50;;;5.98;85.71
77574;BME280;66710;48.868;9.080;2023-04-25T12:08:17;97698.44;;;6.09;86.36
77574;BME280;66710;48.868;9.080;2023-04-25T12:10:45;97692.78;;;6.33;87.19
77574;BME280;66710;48.868;9.080;2023-04-25T12:13:23;97690.97;;;6.66;86.02
77574;BME280;66710;48.868;9.080;2023-04-25T12:15:49;97690.84;;;6.82;86.53
77574;BME280;66710;48.868;9.080;2023-04-25T12:18:19;97698.84;;;7.27;84.50
77574;BME280;66710;48.868;9.080;2023-04-25T12:20:44;97692.50;;;7.48;84.83
77574;BME280;66710;48.868;9.080;2023-04-25T12:23:10;97702.78;;;7.84;81.25
77574;BME280;66710;48.868;9.080;2023-04-25T12:25:44;97698.09;;;7.74;80.81
77574;BME280;66710;48.868;9.080;2023-04-25T12:28:17;97697.16;;;8.01;82.84
77574;BME280;66710;48.868;9.080;2023-04-25T12:30:55;97702.03;;;7.98;82.01
77574;BME280;66710;48.868;9.080;2023-04-25T12:33:24;97706.44;;;8.78;83.29
77574;BME280;66710;48.868;9.080;2023-04-25T12:35:50;97693.94;;;8.77;81.08
77574;BME280;66710;48.868;9.080;2023-04-25T12:38:25;97701.50;;;8.70;81.18
77574;BME280;66710;48.868;9.080;2023-04-25T12:40:50;97707.31;;;8.31;77.02
77574;BME280;66710;48.868;9.080;2023-04-25T12:43:16;97708.19;;;8.42;82.20
77574;BME280;66710;48.868;9.080;2023-04-25T12:45:42;97704.16;;;8.44;82.07
77574;BME280;66710;48.868;9.080;2023-04-25T12:48:07;97709.72;;;8.22;80.03
77574;BME280;66710;48.868;9.080;2023-04-25T12:50:32;97715.50;;;8.36;80.17
77574;BME280;66710;48.868;9.080;2023-04-25T12:52:57;97710.34;;;8.40;78.86
77574;BME280;66710;48.868;9.080;2023-04-25T12:55:23;97713.31;;;8.38;77.29
77574;BME280;66710;48.868;9.080;2023-04-25T12:57:48;97710.56;;;9.11;79.64
77574;BME280;66710;48.868;9.080;2023-04-25T13:00:13;97716.41;;;8.57;77.87
77574;BME280;66710;48.868;9.080;2023-04-25T13:02:40;97720.09;;;8.30;77.81
77574;BME280;66710;48.868;9.080;2023-04-25T13:05:06;97712.19;;;8.97;79.00
77574;BME280;66710;48.868;9.080;2023-04-25T13:07:32;97708.09;;;9.10;77.09